sensor_id;sensor_type;location;lat;lon;timestamp;P1;durP1;ratioP1;P2;durP2;ratioP2
3487;SDS011;38546;48.170;11.724;2023-03-21T00:01:19;5.97;;;3.70;;
3487;SDS011;38546;48.170;11.724;2023-03-21T00:04:09;5.50;;;3.80;;
3487;SDS011;38546;48.170;11.724;2023-03-21T00:06:58;4.20;;;3.40;;
3487;SDS011;38546;48.170;11.724;2023-03-21T00:09:47;3.90;;;3.60;;
3487;SDS011;38546;48.170;11.724;2023-03-21T00:12:36;4.20;;;3.50;;
3487;SDS011;38546;48.170;11.724;2023-03-21T00:15:25;3.60;;;3.30;;
3487;SDS011;38546;48.170;11.724;2023-03-21T00:18:17;6.60;;;3.77;;
3487;SDS011;38546;48.170;11.724;2023-03-21T00:21:10;5.67;;;4.00;;
3487;SDS011;38546;48.170;11.724;2023-03-21T00:24:03;4.40;;;3.20;;
3487;SDS011;38546;48.170;11.724;2023-03-21T00:26:53;3.53;;;3.23;;
3487;SDS011;38546;48.170;11.724;2023-03-21T00:29:44;4.57;;;3.43;;
3487;SDS011;38546;48.170;11.724;2023-03-21T00:32:34;6.20;;;3.50;;
3487;SDS011;38546;48.170;11.724;2023-03-21T00:35:23;3.33;;;3.03;;
3487;SDS011;38546;48.170;11.724;2023-03-21T00:38:13;3.37;;;3.10;;
3487;SDS011;38546;48.170;11.724;2023-03-21T00:41:04;4.47;;;4.10;;
3487;SDS011;38546;48.170;11.724;2023-03-21T00:43:55;3.37;;;3.07;;
3487;SDS011;38546;48.170;11.724;2023-03-21T00:46:45;3.20;;;2.90;;
3487;SDS011;38546;48.170;11.724;2023-03-21T00:49:35;4.40;;;3.70;;
3487;SDS011;38546;48.170;11.724;2023-03-21T00:52:26;3.67;;;3.37;;
3487;SDS011;38546;48.170;11.724;2023-03-21T00:55:16;4.90;;;3.80;;
3487;SDS011;38546;48.170;11.724;2023-03-21T00:58:07;5.20;;;3.60;;
3487;SDS011;38546;48.170;11.724;2023-03-21T01:00:57;4.30;;;4.00;;
3487;SDS011;38546;48.170;11.724;2023-03-21T01:03:48;5.53;;;3.43;;
3487;SDS011;38546;48.170;11.724;2023-03-21T01:06:53;4.97;;;3.17;;
3487;SDS011;38546;48.170;11.724;2023-03-21T01:09:43;3.47;;;3.17;;
3487;SDS011;38546;48.170;11.724;2023-03-21T01:12:32;4.27;;;3.93;;
3487;SDS011;38546;48.170;11.724;2023-03-21T01:15:23;3.87;;;3.57;;
3487;SDS011;38546;48.170;11.724;2023-03-21T01:18:12;4.23;;;3.90;;
3487;SDS011;38546;48.170;11.724;2023-03-21T01:21:06;3.77;;;3.53;;
3487;SDS011;38546;48.170;11.724;2023-03-21T01:23:59;4.03;;;3.70;;
3487;SDS011;38546;48.170;11.724;2023-03-21T01:26:49;5.20;;;4.50;;
3487;SDS011;38546;48.170;11.724;2023-03-21T01:29:38;6.43;;;4.70;;
3487;SDS011;38546;48.170;11.724;2023-03-21T01:32:28;3.83;;;3.53;;
3487;SDS011;38546;48.170;11.724;2023-03-21T01:35:17;5.67;;;4.10;;
3487;SDS011;38546;48.170;11.724;2023-03-21T01:38:07;4.77;;;4.00;;
3487;SDS011;38546;48.170;11.724;2023-03-21T01:40:58;11.43;;;4.20;;
3487;SDS011;38546;48.170;11.724;2023-03-21T01:43:52;6.27;;;4.60;;
3487;SDS011;38546;48.170;11.724;2023-03-21T01:46:51;6.00;;;4.50;;
3487;SDS011;38546;48.170;11.724;2023-03-21T01:49:41;5.20;;;4.10;;
3487;SDS011;38546;48.170;11.724;2023-03-21T01:52:35;6.00;;;4.47;;
3487;SDS011;38546;48.170;11.724;2023-03-21T01:55:26;4.90;;;4.50;;
3487;SDS011;38546;48.170;11.724;2023-03-21T01:58:16;4.53;;;4.10;;
3487;SDS011;38546;48.170;11.724;2023-03-21T02:01:07;5.17;;;4.53;;
3487;SDS011;38546;48.170;11.724;2023-03-21T02:03:58;5.60;;;5.07;;
3487;SDS011;38546;48.170;11.724;2023-03-21T02:06:52;7.03;;;4.37;;
3487;SDS011;38546;48.170;11.724;2023-03-21T02:09:48;4.40;;;4.10;;
3487;SDS011;38546;48.170;11.724;2023-03-21T02:12:39;5.80;;;4.30;;
3487;SDS011;38546;48.170;11.724;2023-03-21T02:15:29;6.57;;;5.40;;
3487;SDS011;38546;48.170;11.724;2023-03-21T02:18:21;6.23;;;4.50;;
3487;SDS011;38546;48.170;11.724;2023-03-21T02:21:49;5.20;;;4.20;;
3487;SDS011;38546;48.170;11.724;2023-03-21T02:33:00;5.70;;;4.50;;
3487;SDS011;38546;48.170;11.724;2023-03-21T02:37:11;6.90;;;4.20;;
3487;SDS011;38546;48.170;11.724;2023-03-21T02:40:27;6.50;;;5.33;;
3487;SDS011;38546;48.170;11.724;2023-03-21T02:43:38;5.87;;;4.60;;
3487;SDS011;38546;48.170;11.724;2023-03-21T02:47:06;6.67;;;4.93;;
3487;SDS011;38546;48.170;11.724;2023-03-21T02:50:23;5.70;;;4.73;;
3487;SDS011;38546;48.170;11.724;2023-03-21T02:53:27;6.40;;;5.10;;
3487;SDS011;38546;48.170;11.724;2023-03-21T02:56:21;8.97;;;7.00;;
3487;SDS011;38546;48.170;11.724;2023-03-21T02:59:13;7.13;;;5.30;;
3487;SDS011;38546;48.170;11.724;2023-03-21T03:02:05;8.20;;;5.60;;
3487;SDS011;38546;48.170;11.724;2023-03-21T03:04:55;8.03;;;5.43;;
3487;SDS011;38546;48.170;11.724;2023-03-21T03:07:47;8.20;;;6.30;;
3487;SDS011;38546;48.170;11.724;2023-03-21T03:11:27;8.50;;;6.57;;
3487;SDS011;38546;48.170;11.724;2023-03-21T03:14:23;7.33;;;6.00;;
3487;SDS011;38546;48.170;11.724;2023-03-21T03:17:46;6.27;;;5.67;;
3487;SDS011;38546;48.170;11.724;2023-03-21T03:21:30;6.57;;;5.50;;
3487;SDS011;38546;48.170;11.724;2023-03-21T03:25:13;6.57;;;5.00;;
3487;SDS011;38546;48.170;11.724;2023-03-21T03:28:10;8.70;;;5.90;;
3487;SDS011;38546;48.170;11.724;2023-03-21T03:31:02;6.43;;;4.80;;
3487;SDS011;38546;48.170;11.724;2023-03-21T03:33:57;4.90;;;4.27;;
3487;SDS011;38546;48.170;11.724;2023-03-21T03:36:54;5.40;;;4.10;;
3487;SDS011;38546;48.170;11.724;2023-03-21T03:39:46;5.47;;;4.87;;
3487;SDS011;38546;48.170;11.724;2023-03-21T03:44:06;4.60;;;4.20;;
3487;SDS011;38546;48.170;11.724;2023-03-21T03:47:06;4.93;;;4.10;;
3487;SDS011;38546;48.170;11.724;2023-03-21T03:50:06;5.10;;;4.60;;
3487;SDS011;38546;48.170;11.724;2023-03-21T03:53:27;6.47;;;4.47;;
3487;SDS011;38546;48.170;11.724;2023-03-21T03:56:24;5.47;;;4.93;;
3487;SDS011;38546;48.170;11.724;2023-03-21T03:59:14;4.97;;;3.80;;
3487;SDS011;38546;48.170;11.724;2023-03-21T04:02:09;5.00;;;4.50;;
3487;SDS011;38546;48.170;11.724;2023-03-21T04:04:58;8.00;;;5.10;;
3487;SDS011;38546;48.170;11.724;2023-03-21T04:07:48;7.00;;;5.17;;
3487;SDS011;38546;48.170;11.724;2023-03-21T04:10:39;5.73;;;5.23;;
3487;SDS011;38546;48.170;11.724;2023-03-21T04:13:29;5.37;;;4.87;;
3487;SDS011;38546;48.170;11.724;2023-03-21T04:16:18;5.10;;;4.60;;
3487;SDS011;38546;48.170;11.724;2023-03-21T04:19:07;5.43;;;4.77;;
3487;SDS011;38546;48.170;11.724;2023-03-21T04:21:57;4.50;;;4.10;;
3487;SDS011;38546;48.170;11.724;2023-03-21T04:24:46;6.10;;;4.73;;
3487;SDS011;38546;48.170;11.724;2023-03-21T04:27:35;4.90;;;4.50;;
3487;SDS011;38546;48.170;11.724;2023-03-21T04:30:24;6.77;;;4.00;;
3487;SDS011;38546;48.170;11.724;2023-03-21T04:33:14;7.20;;;4.87;;
3487;SDS011;38546;48.170;11.724;2023-03-21T04:36:04;6.50;;;5.47;;
3487;SDS011;38546;48.170;11.724;2023-03-21T04:38:56;5.00;;;4.47;;
3487;SDS011;38546;48.170;11.724;2023-03-21T04:41:49;6.00;;;4.70;;
3487;SDS011;38546;48.170;11.724;2023-03-21T04:44:39;5.10;;;4.60;;
3487;SDS011;38546;48.170;11.724;2023-03-21T04:47:29;5.70;;;4.30;;
3487;SDS011;38546;48.170;11.724;2023-03-21T04:50:18;5.77;;;5.10;;
3487;SDS011;38546;48.170;11.724;2023-03-21T04:53:08;7.70;;;4.13;;
3487;SDS011;38546;48.170;11.724;2023-03-21T04:55:57;4.40;;;4.00;;
3487;SDS011;38546;48.170;11.724;2023-03-21T04:58:48;4.97;;;4.47;;
3487;SDS011;38546;48.170;11.724;2023-03-21T05:01:38;5.27;;;4.77;;
3487;SDS011;38546;48.170;11.724;2023-03-21T05:04:28;5.53;;;5.03;;
3487;SDS011;38546;48.170;11.724;2023-03-21T05:07:18;7.93;;;4.97;;
3487;SDS011;38546;48.170;11.724;2023-03-21T05:10:08;6.17;;;5.30;;
3487;SDS011;38546;48.170;11.724;2023-03-21T05:12:59;5.90;;;5.20;;
3487;SDS011;38546;48.170;11.724;2023-03-21T05:15:49;5.83;;;5.33;;
3487;SDS011;38546;48.170;11.724;2023-03-21T05:18:38;8.67;;;5.73;;
3487;SDS011;38546;48.170;11.724;2023-03-21T05:21:28;7.17;;;5.57;;
3487;SDS011;38546;48.170;11.724;2023-03-21T05:24:29;5.33;;;4.87;;
3487;SDS011;38546;48.170;11.724;2023-03-21T05:27:20;6.43;;;5.47;;
3487;SDS011;38546;48.170;11.724;2023-03-21T05:30:23;5.17;;;4.67;;
3487;SDS011;38546;48.170;11.724;2023-03-21T05:33:13;5.40;;;4.77;;
3487;SDS011;38546;48.170;11.724;2023-03-21T05:36:02;8.03;;;5.00;;
3487;SDS011;38546;48.170;11.724;2023-03-21T05:38:53;5.43;;;4.70;;
3487;SDS011;38546;48.170;11.724;2023-03-21T05:41:42;5.13;;;4.63;;
3487;SDS011;38546;48.170;11.724;2023-03-21T05:44:32;5.90;;;5.07;;
3487;SDS011;38546;48.170;11.724;2023-03-21T05:47:21;6.00;;;5.20;;
3487;SDS011;38546;48.170;11.724;2023-03-21T05:50:10;5.67;;;4.17;;
3487;SDS011;38546;48.170;11.724;2023-03-21T05:53:01;6.50;;;5.43;;
3487;SDS011;38546;48.170;11.724;2023-03-21T05:55:50;5.93;;;5.23;;
3487;SDS011;38546;48.170;11.724;2023-03-21T05:58:39;7.30;;;4.80;;
3487;SDS011;38546;48.170;11.724;2023-03-21T06:01:28;5.20;;;4.67;;
3487;SDS011;38546;48.170;11.724;2023-03-21T06:04:17;5.90;;;5.07;;
3487;SDS011;38546;48.170;11.724;2023-03-21T06:07:06;6.13;;;4.80;;
3487;SDS011;38546;48.170;11.724;2023-03-21T06:09:55;6.70;;;4.60;;
3487;SDS011;38546;48.170;11.724;2023-03-21T06:12:45;6.60;;;5.47;;
3487;SDS011;38546;48.170;11.724;2023-03-21T06:15:35;6.20;;;4.77;;
3487;SDS011;38546;48.170;11.724;2023-03-21T06:18:24;5.93;;;4.80;;
3487;SDS011;38546;48.170;11.724;2023-03-21T06:21:13;6.77;;;6.10;;
3487;SDS011;38546;48.170;11.724;2023-03-21T06:24:03;7.90;;;6.17;;
3487;SDS011;38546;48.170;11.724;2023-03-21T06:26:53;7.03;;;4.80;;
3487;SDS011;38546;48.170;11.724;2023-03-21T06:29:42;5.70;;;4.73;;
3487;SDS011;38546;48.170;11.724;2023-03-21T06:32:33;7.40;;;5.07;;
3487;SDS011;38546;48.170;11.724;2023-03-21T06:35:23;8.70;;;5.40;;
3487;SDS011;38546;48.170;11.724;2023-03-21T06:38:12;4.97;;;4.53;;
3487;SDS011;38546;48.170;11.724;2023-03-21T06:41:00;9.13;;;6.20;;
3487;SDS011;38546;48.170;11.724;2023-03-21T06:43:52;7.33;;;5.60;;
3487;SDS011;38546;48.170;11.724;2023-03-21T06:46:41;6.70;;;6.00;;
3487;SDS011;38546;48.170;11.724;2023-03-21T06:49:30;5.47;;;4.97;;
3487;SDS011;38546;48.170;11.724;2023-03-21T06:52:20;6.40;;;5.07;;
3487;SDS011;38546;48.170;11.724;2023-03-21T06:55:08;7.60;;;5.20;;
3487;SDS011;38546;48.170;11.724;2023-03-21T06:57:57;6.53;;;5.93;;
3487;SDS011;38546;48.170;11.724;2023-03-21T07:00:47;7.93;;;6.00;;
3487;SDS011;38546;48.170;11.724;2023-03-21T07:03:37;7.53;;;6.00;;
3487;SDS011;38546;48.170;11.724;2023-03-21T07:06:27;5.50;;;5.00;;
3487;SDS011;38546;48.170;11.724;2023-03-21T07:09:16;5.63;;;5.13;;
3487;SDS011;38546;48.170;11.724;2023-03-21T07:12:07;6.47;;;5.27;;
3487;SDS011;38546;48.170;11.724;2023-03-21T07:14:57;6.00;;;5.43;;
3487;SDS011;38546;48.170;11.724;2023-03-21T07:17:46;5.67;;;4.90;;
3487;SDS011;38546;48.170;11.724;2023-03-21T07:20:35;6.73;;;4.83;;
3487;SDS011;38546;48.170;11.724;2023-03-21T07:23:25;7.27;;;5.40;;
3487;SDS011;38546;48.170;11.724;2023-03-21T07:26:15;8.20;;;5.77;;
3487;SDS011;38546;48.170;11.724;2023-03-21T07:29:05;7.77;;;5.07;;
3487;SDS011;38546;48.170;11.724;2023-03-21T07:31:54;7.40;;;4.90;;
3487;SDS011;38546;48.170;11.724;2023-03-21T07:34:43;9.77;;;5.37;;
3487;SDS011;38546;48.170;11.724;2023-03-21T07:37:32;10.33;;;4.73;;
3487;SDS011;38546;48.170;11.724;2023-03-21T07:40:22;12.30;;;5.00;;
3487;SDS011;38546;48.170;11.724;2023-03-21T07:43:11;7.60;;;5.00;;
3487;SDS011;38546;48.170;11.724;2023-03-21T07:46:00;5.90;;;5.07;;
3487;SDS011;38546;48.170;11.724;2023-03-21T07:48:50;6.17;;;5.47;;
3487;SDS011;38546;48.170;11.724;2023-03-21T07:51:39;6.20;;;5.50;;
3487;SDS011;38546;48.170;11.724;2023-03-21T07:54:28;6.10;;;4.70;;
3487;SDS011;38546;48.170;11.724;2023-03-21T07:57:17;6.10;;;5.47;;
3487;SDS011;38546;48.170;11.724;2023-03-21T08:00:06;7.67;;;6.20;;
3487;SDS011;38546;48.170;11.724;2023-03-21T08:02:57;10.07;;;6.50;;
3487;SDS011;38546;48.170;11.724;2023-03-21T08:05:48;6.97;;;6.20;;
3487;SDS011;38546;48.170;11.724;2023-03-21T08:08:37;8.20;;;6.40;;
3487;SDS011;38546;48.170;11.724;2023-03-21T08:11:27;7.70;;;6.93;;
3487;SDS011;38546;48.170;11.724;2023-03-21T08:14:19;8.77;;;6.13;;
3487;SDS011;38546;48.170;11.724;2023-03-21T08:17:09;9.80;;;7.30;;
3487;SDS011;38546;48.170;11.724;2023-03-21T08:19:58;7.93;;;6.80;;
3487;SDS011;38546;48.170;11.724;2023-03-21T08:22:47;6.90;;;6.20;;
3487;SDS011;38546;48.170;11.724;2023-03-21T08:25:38;10.37;;;6.87;;
3487;SDS011;38546;48.170;11.724;2023-03-21T08:28:27;8.63;;;6.50;;
3487;SDS011;38546;48.170;11.724;2023-03-21T08:31:17;5.97;;;5.30;;
3487;SDS011;38546;48.170;11.724;2023-03-21T08:34:06;7.80;;;5.90;;
3487;SDS011;38546;48.170;11.724;2023-03-21T08:36:56;6.80;;;5.80;;
3487;SDS011;38546;48.170;11.724;2023-03-21T08:39:45;8.53;;;6.03;;
3487;SDS011;38546;48.170;11.724;2023-03-21T08:42:34;7.40;;;5.80;;
3487;SDS011;38546;48.170;11.724;2023-03-21T08:45:23;7.40;;;5.67;;
3487;SDS011;38546;48.170;11.724;2023-03-21T08:48:14;6.90;;;5.80;;
3487;SDS011;38546;48.170;11.724;2023-03-21T08:51:03;5.67;;;4.87;;
3487;SDS011;38546;48.170;11.724;2023-03-21T08:53:53;7.43;;;5.30;;
3487;SDS011;38546;48.170;11.724;2023-03-21T08:56:42;6.33;;;5.13;;
3487;SDS011;38546;48.170;11.724;2023-03-21T08:59:32;6.73;;;5.70;;
3487;SDS011;38546;48.170;11.724;2023-03-21T09:02:21;8.27;;;6.30;;
3487;SDS011;38546;48.170;11.724;2023-03-21T09:05:10;7.10;;;5.13;;
3487;SDS011;38546;48.170;11.724;2023-03-21T09:08:01;5.90;;;4.97;;
3487;SDS011;38546;48.170;11.724;2023-03-21T09:10:53;9.47;;;5.20;;
3487;SDS011;38546;48.170;11.724;2023-03-21T09:13:43;6.70;;;5.50;;
3487;SDS011;38546;48.170;11.724;2023-03-21T09:16:32;6.83;;;4.87;;
3487;SDS011;38546;48.170;11.724;2023-03-21T09:19:21;7.53;;;5.80;;
3487;SDS011;38546;48.170;11.724;2023-03-21T09:22:12;7.60;;;5.83;;
3487;SDS011;38546;48.170;11.724;2023-03-21T09:25:05;7.63;;;5.50;;
3487;SDS011;38546;48.170;11.724;2023-03-21T09:27:55;8.50;;;6.90;;
3487;SDS011;38546;48.170;11.724;2023-03-21T09:30:45;8.27;;;6.33;;
3487;SDS011;38546;48.170;11.724;2023-03-21T09:33:34;8.70;;;6.57;;
3487;SDS011;38546;48.170;11.724;2023-03-21T09:36:24;7.37;;;5.07;;
3487;SDS011;38546;48.170;11.724;2023-03-21T09:39:14;11.83;;;6.07;;
3487;SDS011;38546;48.170;11.724;2023-03-21T09:43:09;11.20;;;6.93;;
3487;SDS011;38546;48.170;11.724;2023-03-21T09:48:14;6.03;;;5.20;;
3487;SDS011;38546;48.170;11.724;2023-03-21T09:51:17;17.00;;;9.40;;
3487;SDS011;38546;48.170;11.724;2023-03-21T09:54:14;9.27;;;6.17;;
3487;SDS011;38546;48.170;11.724;2023-03-21T09:57:33;7.50;;;4.80;;
3487;SDS011;38546;48.170;11.724;2023-03-21T10:00:32;3.80;;;3.50;;
3487;SDS011;38546;48.170;11.724;2023-03-21T10:03:31;5.30;;;3.60;;
3487;SDS011;38546;48.170;11.724;2023-03-21T10:06:25;4.10;;;3.80;;
3487;SDS011;38546;48.170;11.724;2023-03-21T10:09:17;6.20;;;4.23;;
3487;SDS011;38546;48.170;11.724;2023-03-21T10:12:15;3.70;;;3.40;;
3487;SDS011;38546;48.170;11.724;2023-03-21T10:15:10;5.93;;;5.10;;
3487;SDS011;38546;48.170;11.724;2023-03-21T10:18:06;5.07;;;4.57;;
3487;SDS011;38546;48.170;11.724;2023-03-21T10:20:58;6.93;;;6.17;;
3487;SDS011;38546;48.170;11.724;2023-03-21T10:23:52;10.53;;;5.30;;
3487;SDS011;38546;48.170;11.724;2023-03-21T10:26:44;7.33;;;5.67;;
3487;SDS011;38546;48.170;11.724;2023-03-21T10:29:38;6.57;;;5.73;;
3487;SDS011;38546;48.170;11.724;2023-03-21T10:32:31;5.63;;;4.33;;
3487;SDS011;38546;48.170;11.724;2023-03-21T10:35:21;5.30;;;4.53;;
3487;SDS011;38546;48.170;11.724;2023-03-21T10:38:15;4.23;;;3.83;;
3487;SDS011;38546;48.170;11.724;2023-03-21T10:41:08;4.30;;;3.90;;
3487;SDS011;38546;48.170;11.724;2023-03-21T10:44:06;10.90;;;6.70;;
3487;SDS011;38546;48.170;11.724;2023-03-21T10:47:05;9.67;;;5.47;;
3487;SDS011;38546;48.170;11.724;2023-03-21T10:50:00;5.53;;;5.03;;
3487;SDS011;38546;48.170;11.724;2023-03-21T10:53:01;3.73;;;3.40;;
3487;SDS011;38546;48.170;11.724;2023-03-21T10:55:51;5.50;;;4.93;;
3487;SDS011;38546;48.170;11.724;2023-03-21T10:58:45;3.33;;;3.10;;
3487;SDS011;38546;48.170;11.724;2023-03-21T11:01:40;4.00;;;3.60;;
3487;SDS011;38546;48.170;11.724;2023-03-21T11:04:34;4.17;;;3.80;;
3487;SDS011;38546;48.170;11.724;2023-03-21T11:07:27;3.53;;;3.23;;
3487;SDS011;38546;48.170;11.724;2023-03-21T11:10:29;5.50;;;4.17;;
3487;SDS011;38546;48.170;11.724;2023-03-21T11:13:27;4.20;;;3.63;;
3487;SDS011;38546;48.170;11.724;2023-03-21T11:16:31;4.60;;;4.20;;
3487;SDS011;38546;48.170;11.724;2023-03-21T11:19:30;4.80;;;3.90;;
3487;SDS011;38546;48.170;11.724;2023-03-21T11:22:25;4.13;;;3.77;;
3487;SDS011;38546;48.170;11.724;2023-03-21T11:25:30;5.50;;;3.90;;
3487;SDS011;38546;48.170;11.724;2023-03-21T11:28:26;8.40;;;4.90;;
3487;SDS011;38546;48.170;11.724;2023-03-21T11:31:37;6.20;;;5.20;;
3487;SDS011;38546;48.170;11.724;2023-03-21T11:34:32;6.93;;;5.00;;
3487;SDS011;38546;48.170;11.724;2023-03-21T11:37:39;4.77;;;4.37;;
3487;SDS011;38546;48.170;11.724;2023-03-21T11:40:35;4.10;;;3.70;;
3487;SDS011;38546;48.170;11.724;2023-03-21T11:43:28;5.63;;;4.33;;
3487;SDS011;38546;48.170;11.724;2023-03-21T11:46:27;4.73;;;4.33;;
3487;SDS011;38546;48.170;11.724;2023-03-21T11:49:19;7.70;;;4.50;;
3487;SDS011;38546;48.170;11.724;2023-03-21T11:52:28;5.70;;;4.60;;
3487;SDS011;38546;48.170;11.724;2023-03-21T12:00:00;4.40;;;4.00;;
3487;SDS011;38546;48.170;11.724;2023-03-21T12:03:58;5.40;;;3.30;;
3487;SDS011;38546;48.170;11.724;2023-03-21T12:07:42;4.17;;;3.50;;
3487;SDS011;38546;48.170;11.724;2023-03-21T12:19:20;3.63;;;3.33;;
3487;SDS011;38546;48.170;11.724;2023-03-21T12:22:48;4.27;;;3.87;;
3487;SDS011;38546;48.170;11.724;2023-03-21T12:32:40;5.80;;;3.80;;
3487;SDS011;38546;48.170;11.724;2023-03-21T12:47:53;6.70;;;3.57;;
3487;SDS011;38546;48.170;11.724;2023-03-21T12:51:06;6.50;;;4.20;;
3487;SDS011;38546;48.170;11.724;2023-03-21T12:58:23;3.80;;;3.50;;
3487;SDS011;38546;48.170;11.724;2023-03-21T13:01:16;3.93;;;3.20;;
3487;SDS011;38546;48.170;11.724;2023-03-21T13:08:59;4.63;;;3.40;;
3487;SDS011;38546;48.170;11.724;2023-03-21T13:12:01;5.23;;;3.80;;
3487;SDS011;38546;48.170;11.724;2023-03-21T13:19:47;5.80;;;3.80;;
3487;SDS011;38546;48.170;11.724;2023-03-21T13:22:46;2.97;;;2.67;;
3487;SDS011;38546;48.170;11.724;2023-03-21T13:25:46;3.70;;;2.87;;
3487;SDS011;38546;48.170;11.724;2023-03-21T13:28:37;4.00;;;3.60;;
3487;SDS011;38546;48.170;11.724;2023-03-21T13:31:28;3.70;;;3.33;;
3487;SDS011;38546;48.170;11.724;2023-03-21T13:34:19;3.70;;;3.37;;
3487;SDS011;38546;48.170;11.724;2023-03-21T13:37:17;3.30;;;2.47;;
3487;SDS011;38546;48.170;11.724;2023-03-21T13:40:18;4.80;;;4.03;;
3487;SDS011;38546;48.170;11.724;2023-03-21T13:46:59;2.60;;;2.40;;
3487;SDS011;38546;48.170;11.724;2023-03-21T13:56:19;3.90;;;3.17;;
3487;SDS011;38546;48.170;11.724;2023-03-21T13:59:10;3.53;;;3.30;;
3487;SDS011;38546;48.170;11.724;2023-03-21T14:05:22;4.00;;;3.60;;
3487;SDS011;38546;48.170;11.724;2023-03-21T14:08:14;3.03;;;2.83;;
3487;SDS011;38546;48.170;11.724;2023-03-21T14:11:07;3.40;;;3.20;;
3487;SDS011;38546;48.170;11.724;2023-03-21T14:14:04;3.60;;;3.20;;
3487;SDS011;38546;48.170;11.724;2023-03-21T14:16:54;3.43;;;3.07;;
3487;SDS011;38546;48.170;11.724;2023-03-21T14:19:44;3.33;;;3.03;;
3487;SDS011;38546;48.170;11.724;2023-03-21T14:22:33;3.20;;;2.30;;
3487;SDS011;38546;48.170;11.724;2023-03-21T14:25:23;3.83;;;3.53;;
3487;SDS011;38546;48.170;11.724;2023-03-21T14:28:22;5.50;;;3.43;;
3487;SDS011;38546;48.170;11.724;2023-03-21T14:31:15;3.50;;;3.20;;
3487;SDS011;38546;48.170;11.724;2023-03-21T14:34:07;3.60;;;3.20;;
3487;SDS011;38546;48.170;11.724;2023-03-21T14:36:58;2.60;;;2.40;;
3487;SDS011;38546;48.170;11.724;2023-03-21T14:39:55;7.93;;;3.40;;
3487;SDS011;38546;48.170;11.724;2023-03-21T14:42:48;3.13;;;2.53;;
3487;SDS011;38546;48.170;11.724;2023-03-21T14:45:39;4.73;;;2.83;;
3487;SDS011;38546;48.170;11.724;2023-03-21T14:48:29;4.87;;;3.33;;
3487;SDS011;38546;48.170;11.724;2023-03-21T14:51:21;4.07;;;3.00;;
3487;SDS011;38546;48.170;11.724;2023-03-21T14:54:12;7.27;;;3.20;;
3487;SDS011;38546;48.170;11.724;2023-03-21T14:57:17;3.60;;;3.27;;
3487;SDS011;38546;48.170;11.724;2023-03-21T15:00:16;6.27;;;4.47;;
3487;SDS011;38546;48.170;11.724;2023-03-21T15:03:14;9.77;;;4.27;;
3487;SDS011;38546;48.170;11.724;2023-03-21T15:06:08;3.80;;;2.80;;
3487;SDS011;38546;48.170;11.724;2023-03-21T15:09:02;4.33;;;3.93;;
3487;SDS011;38546;48.170;11.724;2023-03-21T15:11:53;3.57;;;3.30;;
3487;SDS011;38546;48.170;11.724;2023-03-21T15:14:44;8.00;;;4.47;;
3487;SDS011;38546;48.170;11.724;2023-03-21T15:17:33;9.27;;;4.70;;
3487;SDS011;38546;48.170;11.724;2023-03-21T15:20:25;4.63;;;4.07;;
3487;SDS011;38546;48.170;11.724;2023-03-21T15:23:27;10.37;;;4.30;;
3487;SDS011;38546;48.170;11.724;2023-03-21T15:26:22;4.77;;;4.10;;
3487;SDS011;38546;48.170;11.724;2023-03-21T15:29:14;4.53;;;3.60;;
3487;SDS011;38546;48.170;11.724;2023-03-21T15:32:05;4.37;;;3.97;;
3487;SDS011;38546;48.170;11.724;2023-03-21T15:35:03;4.30;;;3.77;;
3487;SDS011;38546;48.170;11.724;2023-03-21T15:37:57;3.90;;;3.20;;
3487;SDS011;38546;48.170;11.724;2023-03-21T15:40:46;6.03;;;3.70;;
3487;SDS011;38546;48.170;11.724;2023-03-21T15:43:37;4.40;;;3.10;;
3487;SDS011;38546;48.170;11.724;2023-03-21T15:49:52;3.50;;;3.20;;
3487;SDS011;38546;48.170;11.724;2023-03-21T15:52:50;4.30;;;3.90;;
3487;SDS011;38546;48.170;11.724;2023-03-21T15:55:45;6.67;;;3.47;;
3487;SDS011;38546;48.170;11.724;2023-03-21T15:58:43;7.17;;;3.80;;
3487;SDS011;38546;48.170;11.724;2023-03-21T16:01:35;5.23;;;3.80;;
3487;SDS011;38546;48.170;11.724;2023-03-21T16:04:26;8.03;;;4.17;;
3487;SDS011;38546;48.170;11.724;2023-03-21T16:07:15;5.90;;;3.80;;
3487;SDS011;38546;48.170;11.724;2023-03-21T16:10:06;8.17;;;3.70;;
3487;SDS011;38546;48.170;11.724;2023-03-21T16:13:18;11.10;;;3.60;;
3487;SDS011;38546;48.170;11.724;2023-03-21T16:16:14;4.60;;;4.20;;
3487;SDS011;38546;48.170;11.724;2023-03-21T16:19:10;5.47;;;3.90;;
3487;SDS011;38546;48.170;11.724;2023-03-21T16:22:00;4.47;;;3.90;;
3487;SDS011;38546;48.170;11.724;2023-03-21T16:24:49;3.70;;;3.37;;
3487;SDS011;38546;48.170;11.724;2023-03-21T16:27:38;4.83;;;4.20;;
3487;SDS011;38546;48.170;11.724;2023-03-21T16:30:27;4.90;;;4.03;;
3487;SDS011;38546;48.170;11.724;2023-03-21T16:33:16;6.40;;;4.50;;
3487;SDS011;38546;48.170;11.724;2023-03-21T16:36:05;5.50;;;4.67;;
3487;SDS011;38546;48.170;11.724;2023-03-21T16:39:00;4.20;;;3.80;;
3487;SDS011;38546;48.170;11.724;2023-03-21T16:42:04;5.83;;;4.47;;
3487;SDS011;38546;48.170;11.724;2023-03-21T16:44:53;11.10;;;5.00;;
3487;SDS011;38546;48.170;11.724;2023-03-21T16:47:42;7.43;;;4.40;;
3487;SDS011;38546;48.170;11.724;2023-03-21T16:50:33;7.53;;;4.80;;
3487;SDS011;38546;48.170;11.724;2023-03-21T16:53:27;10.77;;;6.03;;
3487;SDS011;38546;48.170;11.724;2023-03-21T16:56:20;6.30;;;5.40;;
3487;SDS011;38546;48.170;11.724;2023-03-21T16:59:13;7.70;;;5.63;;
3487;SDS011;38546;48.170;11.724;2023-03-21T17:02:12;5.77;;;4.70;;
3487;SDS011;38546;48.170;11.724;2023-03-21T17:05:04;7.20;;;5.80;;
3487;SDS011;38546;48.170;11.724;2023-03-21T17:07:54;5.83;;;5.00;;
3487;SDS011;38546;48.170;11.724;2023-03-21T17:10:45;6.97;;;5.23;;
3487;SDS011;38546;48.170;11.724;2023-03-21T17:13:34;7.70;;;4.40;;
3487;SDS011;38546;48.170;11.724;2023-03-21T17:16:23;6.33;;;4.80;;
3487;SDS011;38546;48.170;11.724;2023-03-21T17:19:17;7.53;;;5.50;;
3487;SDS011;38546;48.170;11.724;2023-03-21T17:22:11;9.43;;;6.00;;
3487;SDS011;38546;48.170;11.724;2023-03-21T17:25:00;8.23;;;5.33;;
3487;SDS011;38546;48.170;11.724;2023-03-21T17:27:50;8.33;;;5.10;;
3487;SDS011;38546;48.170;11.724;2023-03-21T17:30:41;8.67;;;5.07;;
3487;SDS011;38546;48.170;11.724;2023-03-21T17:33:30;10.03;;;5.47;;
3487;SDS011;38546;48.170;11.724;2023-03-21T17:36:20;7.67;;;4.93;;
3487;SDS011;38546;48.170;11.724;2023-03-21T17:39:25;6.73;;;5.10;;
3487;SDS011;38546;48.170;11.724;2023-03-21T17:42:16;7.70;;;5.30;;
3487;SDS011;38546;48.170;11.724;2023-03-21T17:45:08;8.20;;;4.37;;
3487;SDS011;38546;48.170;11.724;2023-03-21T17:47:57;6.87;;;4.87;;
3487;SDS011;38546;48.170;11.724;2023-03-21T17:50:46;7.50;;;6.00;;
3487;SDS011;38546;48.170;11.724;2023-03-21T17:53:36;8.70;;;5.83;;
3487;SDS011;38546;48.170;11.724;2023-03-21T17:56:26;6.30;;;5.70;;
3487;SDS011;38546;48.170;11.724;2023-03-21T17:59:18;6.50;;;5.00;;
3487;SDS011;38546;48.170;11.724;2023-03-21T18:02:07;8.63;;;5.90;;
3487;SDS011;38546;48.170;11.724;2023-03-21T18:04:56;5.63;;;5.00;;
3487;SDS011;38546;48.170;11.724;2023-03-21T18:07:46;7.73;;;5.70;;
3487;SDS011;38546;48.170;11.724;2023-03-21T18:10:36;7.13;;;5.27;;
3487;SDS011;38546;48.170;11.724;2023-03-21T18:13:27;5.00;;;3.87;;
3487;SDS011;38546;48.170;11.724;2023-03-21T18:16:17;4.63;;;4.23;;
3487;SDS011;38546;48.170;11.724;2023-03-21T18:19:10;5.00;;;4.50;;
3487;SDS011;38546;48.170;11.724;2023-03-21T18:22:00;5.83;;;4.27;;
3487;SDS011;38546;48.170;11.724;2023-03-21T18:24:50;4.30;;;3.77;;
3487;SDS011;38546;48.170;11.724;2023-03-21T18:27:39;5.37;;;4.87;;
3487;SDS011;38546;48.170;11.724;2023-03-21T18:30:28;5.80;;;4.70;;
3487;SDS011;38546;48.170;11.724;2023-03-21T18:33:17;7.30;;;4.33;;
3487;SDS011;38546;48.170;11.724;2023-03-21T18:36:07;5.40;;;4.20;;
3487;SDS011;38546;48.170;11.724;2023-03-21T18:38:59;4.00;;;3.70;;
3487;SDS011;38546;48.170;11.724;2023-03-21T18:41:50;6.57;;;4.97;;
3487;SDS011;38546;48.170;11.724;2023-03-21T18:44:41;7.13;;;4.53;;